sensor_id;sensor_type;location;lat;lon;timestamp;pressure;altitude;pressure_sealevel;temperature;humidity
41830;BME280;38614;43.472;23.936;2022-12-29T00:01:26;101389.72;;;3.43;nan
41830;BME280;38614;43.472;23.936;2022-12-29T00:04:14;101364.69;;;3.26;nan
41830;BME280;38614;43.472;23.936;2022-12-29T00:07:02;101383.72;;;3.41;nan
41830;BME280;38614;43.472;23.936;2022-12-29T00:09:51;101381.78;;;3.47;nan
41830;BME280;38614;43.472;23.936;2022-12-29T00:12:39;101361.84;;;3.46;nan
41830;BME280;38614;43.472;23.936;2022-12-29T00:15:45;101381.91;;;3.70;nan
41830;BME280;38614;43.472;23.936;2022-12-29T00:18:33;101362.09;;;3.50;nan
41830;BME280;38614;43.472;23.936;2022-12-29T00:21:22;101384.72;;;3.60;nan
41830;BME280;38614;43.472;23.936;2022-12-29T00:24:29;101384.19;;;3.53;nan
41830;BME280;38614;43.472;23.936;2022-12-29T00:27:35;101376.34;;;3.41;nan
41830;BME280;38614;43.472;23.936;2022-12-29T00:30:41;101379.41;;;3.30;nan
41830;BME280;38614;43.472;23.936;2022-12-29T00:33:48;101380.56;;;3.19;nan
41830;BME280;38614;43.472;23.936;2022-12-29T00:36:54;101397.50;;;3.05;nan
41830;BME280;38614;43.472;23.936;2022-12-29T00:39:42;101365.34;;;2.87;nan
41830;BME280;38614;43.472;23.936;2022-12-29T00:42:50;101362.66;;;2.82;nan
41830;BME280;38614;43.472;23.936;2022-12-29T00:45:56;101387.75;;;2.89;nan
41830;BME280;38614;43.472;23.936;2022-12-29T00:48:44;101385.03;;;2.84;nan
41830;BME280;38614;43.472;23.936;2022-12-29T00:51:51;101356.16;;;2.57;nan
41830;BME280;38614;43.472;23.936;2022-12-29T00:54:40;101379.06;;;2.72;nan
41830;BME280;38614;43.472;23.936;2022-12-29T00:57:28;101377.44;;;2.55;nan
41830;BME280;38614;43.472;23.936;2022-12-29T01:00:16;101379.91;;;2.47;nan
41830;BME280;38614;43.472;23.936;2022-12-29T01:03:04;101378.31;;;2.36;nan
41830;BME280;38614;43.472;23.936;2022-12-29T01:05:53;101375.28;;;2.22;nan
41830;BME280;38614;43.472;23.936;2022-12-29T01:08:40;101366.03;;;2.03;nan
41830;BME280;38614;43.472;23.936;2022-12-29T01:11:28;101359.22;;;2.05;nan
41830;BME280;38614;43.472;23.936;2022-12-29T01:14:17;101374.22;;;2.08;nan
41830;BME280;38614;43.472;23.936;2022-12-29T01:17:06;101372.28;;;2.03;nan
41830;BME280;38614;43.472;23.936;2022-12-29T01:19:53;101375.59;;;2.05;nan
41830;BME280;38614;43.472;23.936;2022-12-29T01:22:41;101378.28;;;2.00;nan
41830;BME280;38614;43.472;23.936;2022-12-29T01:25:29;101361.94;;;1.90;nan
41830;BME280;38614;43.472;23.936;2022-12-29T01:28:18;101351.56;;;1.71;nan
41830;BME280;38614;43.472;23.936;2022-12-29T01:31:13;101363.81;;;1.64;nan
41830;BME280;38614;43.472;23.936;2022-12-29T01:34:01;101346.34;;;1.50;nan
41830;BME280;38614;43.472;23.936;2022-12-29T01:36:49;101343.63;;;1.50;nan
41830;BME280;38614;43.472;23.936;2022-12-29T01:39:39;101326.19;;;1.40;nan
41830;BME280;38614;43.472;23.936;2022-12-29T01:42:27;101332.13;;;1.37;nan
41830;BME280;38614;43.472;23.936;2022-12-29T01:45:17;101315.22;;;1.20;nan
41830;BME280;38614;43.472;23.936;2022-12-29T01:48:06;101343.00;;;1.27;nan
41830;BME280;38614;43.472;23.936;2022-12-29T01:50:56;101334.84;;;1.27;nan
41830;BME280;38614;43.472;23.936;2022-12-29T01:53:44;101326.41;;;1.24;nan
41830;BME280;38614;43.472;23.936;2022-12-29T01:56:32;101331.03;;;1.23;nan
41830;BME280;38614;43.472;23.936;2022-12-29T01:59:24;101302.16;;;1.22;nan
41830;BME280;38614;43.472;23.936;2022-12-29T02:02:14;101322.03;;;1.23;nan
41830;BME280;38614;43.472;23.936;2022-12-29T02:05:14;101315.47;;;1.19;nan
41830;BME280;38614;43.472;23.936;2022-12-29T02:08:04;101327.19;;;1.19;nan
41830;BME280;38614;43.472;23.936;2022-12-29T02:10:55;101327.69;;;1.11;nan
41830;BME280;38614;43.472;23.936;2022-12-29T02:13:43;101328.78;;;1.05;nan
41830;BME280;38614;43.472;23.936;2022-12-29T02:17:04;101316.78;;;0.96;nan
41830;BME280;38614;43.472;23.936;2022-12-29T02:20:27;101330.34;;;0.91;nan
41830;BME280;38614;43.472;23.936;2022-12-29T02:48:25;101307.59;;;0.54;nan
41830;BME280;38614;43.472;23.936;2022-12-29T02:51:26;101313.84;;;0.55;nan
41830;BME280;38614;43.472;23.936;2022-12-29T02:54:19;101306.50;;;0.50;nan
41830;BME280;38614;43.472;23.936;2022-12-29T02:57:31;101313.59;;;0.56;nan
41830;BME280;38614;43.472;23.936;2022-12-29T03:00:21;101305.63;;;0.45;nan
41830;BME280;38614;43.472;23.936;2022-12-29T03:06:21;101299.53;;;0.27;nan
41830;BME280;38614;43.472;23.936;2022-12-29T03:09:25;101285.88;;;0.17;nan
41830;BME280;38614;43.472;23.936;2022-12-29T03:12:41;101298.19;;;0.25;nan
41830;BME280;38614;43.472;23.936;2022-12-29T03:22:10;101313.69;;;0.24;nan
41830;BME280;38614;43.472;23.936;2022-12-29T03:25:27;101322.28;;;0.11;nan
41830;BME280;38614;43.472;23.936;2022-12-29T03:28:31;101292.00;;;-0.03;nan
41830;BME280;38614;43.472;23.936;2022-12-29T03:31:23;101326.31;;;0.09;nan
41830;BME280;38614;43.472;23.936;2022-12-29T03:34:13;101308.22;;;-0.13;nan
41830;BME280;38614;43.472;23.936;2022-12-29T03:37:06;101301.97;;;-0.13;nan
41830;BME280;38614;43.472;23.936;2022-12-29T03:39:57;101333.31;;;-0.06;nan
41830;BME280;38614;43.472;23.936;2022-12-29T03:42:45;101315.53;;;-0.18;nan
41830;BME280;38614;43.472;23.936;2022-12-29T03:45:33;101332.41;;;-0.16;nan
41830;BME280;38614;43.472;23.936;2022-12-29T03:48:22;101335.13;;;-0.11;nan
41830;BME280;38614;43.472;23.936;2022-12-29T03:51:11;101304.88;;;-0.25;nan
41830;BME280;38614;43.472;23.936;2022-12-29T03:53:59;101329.41;;;-0.15;nan
41830;BME280;38614;43.472;23.936;2022-12-29T03:56:46;101322.03;;;-0.19;nan
41830;BME280;38614;43.472;23.936;2022-12-29T03:59:39;101314.59;;;-0.29;nan
41830;BME280;38614;43.472;23.936;2022-12-29T04:02:26;101324.75;;;-0.19;nan
41830;BME280;38614;43.472;23.936;2022-12-29T04:05:14;101320.38;;;-0.25;nan
41830;BME280;38614;43.472;23.936;2022-12-29T04:08:02;101322.47;;;-0.33;nan
41830;BME280;38614;43.472;23.936;2022-12-29T04:10:50;101315.56;;;-0.45;nan
41830;BME280;38614;43.472;23.936;2022-12-29T04:13:41;101311.50;;;-0.43;nan
41830;BME280;38614;43.472;23.936;2022-12-29T04:16:32;101325.72;;;-0.36;nan
41830;BME280;38614;43.472;23.936;2022-12-29T04:19:25;101319.03;;;-0.50;nan
41830;BME280;38614;43.472;23.936;2022-12-29T04:22:12;101301.53;;;-0.64;nan
41830;BME280;38614;43.472;23.936;2022-12-29T04:28:15;101307.16;;;-0.71;nan
41830;BME280;38614;43.472;23.936;2022-12-29T04:31:23;101328.09;;;-0.66;nan
41830;BME280;38614;43.472;23.936;2022-12-29T04:34:13;101334.47;;;-0.55;nan
41830;BME280;38614;43.472;23.936;2022-12-29T04:37:01;101338.66;;;-0.43;nan
41830;BME280;38614;43.472;23.936;2022-12-29T04:39:49;101333.59;;;-0.34;nan
41830;BME280;38614;43.472;23.936;2022-12-29T04:42:41;101346.63;;;-0.36;nan
41830;BME280;38614;43.472;23.936;2022-12-29T04:45:29;101341.09;;;-0.46;nan
41830;BME280;38614;43.472;23.936;2022-12-29T04:48:27;101352.06;;;-0.36;nan
41830;BME280;38614;43.472;23.936;2022-12-29T04:51:44;101355.53;;;-0.41;nan
41830;BME280;38614;43.472;23.936;2022-12-29T04:54:35;101357.56;;;-0.53;nan
41830;BME280;38614;43.472;23.936;2022-12-29T04:57:31;101361.47;;;-0.44;nan
41830;BME280;38614;43.472;23.936;2022-12-29T05:00:20;101354.50;;;-0.35;nan
41830;BME280;38614;43.472;23.936;2022-12-29T05:03:08;101374.88;;;-0.32;nan
41830;BME280;38614;43.472;23.936;2022-12-29T05:05:59;101376.31;;;-0.24;nan
41830;BME280;38614;43.472;23.936;2022-12-29T05:08:47;101357.69;;;-0.43;nan
41830;BME280;38614;43.472;23.936;2022-12-29T05:11:34;101377.09;;;-0.29;nan
41830;BME280;38614;43.472;23.936;2022-12-29T05:14:22;101361.47;;;-0.44;nan
41830;BME280;38614;43.472;23.936;2022-12-29T05:20:59;101404.25;;;-0.29;nan
41830;BME280;38614;43.472;23.936;2022-12-29T05:23:48;101403.44;;;-0.30;nan
41830;BME280;38614;43.472;23.936;2022-12-29T05:26:36;101408.19;;;-0.42;nan
41830;BME280;38614;43.472;23.936;2022-12-29T05:29:47;101398.31;;;-0.53;nan
41830;BME280;38614;43.472;23.936;2022-12-29T05:32:37;101410.84;;;-0.47;nan
41830;BME280;38614;43.472;23.936;2022-12-29T05:35:37;101378.03;;;-0.67;nan
41830;BME280;38614;43.472;23.936;2022-12-29T05:38:24;101388.63;;;-0.66;nan
41830;BME280;38614;43.472;23.936;2022-12-29T05:41:14;101389.94;;;-0.73;nan
41830;BME280;38614;43.472;23.936;2022-12-29T05:44:31;101401.09;;;-0.70;nan
41830;BME280;38614;43.472;23.936;2022-12-29T05:47:39;101345.03;;;-1.03;nan
41830;BME280;38614;43.472;23.936;2022-12-29T05:50:34;101362.09;;;-0.86;nan
41830;BME280;38614;43.472;23.936;2022-12-29T05:53:31;101385.25;;;-0.78;nan
41830;BME280;38614;43.472;23.936;2022-12-29T05:56:21;101394.22;;;-0.77;nan
41830;BME280;38614;43.472;23.936;2022-12-29T05:59:18;101404.31;;;-0.73;nan
41830;BME280;38614;43.472;23.936;2022-12-29T06:02:08;101391.63;;;-0.89;nan
41830;BME280;38614;43.472;23.936;2022-12-29T06:05:02;101417.91;;;-0.73;nan
41830;BME280;38614;43.472;23.936;2022-12-29T06:07:51;101409.06;;;-0.63;nan
41830;BME280;38614;43.472;23.936;2022-12-29T06:10:40;101408.78;;;-0.62;nan
41830;BME280;38614;43.472;23.936;2022-12-29T06:13:28;101409.53;;;-0.66;nan
41830;BME280;38614;43.472;23.936;2022-12-29T06:16:17;101417.50;;;-0.60;nan
41830;BME280;38614;43.472;23.936;2022-12-29T06:19:04;101416.16;;;-0.57;nan
41830;BME280;38614;43.472;23.936;2022-12-29T06:21:53;101409.63;;;-0.61;nan
41830;BME280;38614;43.472;23.936;2022-12-29T06:24:41;101417.63;;;-0.49;nan
41830;BME280;38614;43.472;23.936;2022-12-29T06:27:29;101411.56;;;-0.57;nan
41830;BME280;38614;43.472;23.936;2022-12-29T06:30:16;101404.28;;;-0.51;nan
41830;BME280;38614;43.472;23.936;2022-12-29T06:33:04;101410.34;;;-0.44;nan
41830;BME280;38614;43.472;23.936;2022-12-29T06:35:52;101377.03;;;-0.61;nan
41830;BME280;38614;43.472;23.936;2022-12-29T06:38:40;101413.09;;;-0.39;nan
41830;BME280;38614;43.472;23.936;2022-12-29T06:41:28;101419.78;;;-0.24;nan
41830;BME280;38614;43.472;23.936;2022-12-29T06:44:38;101417.00;;;-0.30;nan
41830;BME280;38614;43.472;23.936;2022-12-29T06:47:29;101411.56;;;-0.30;nan
41830;BME280;38614;43.472;23.936;2022-12-29T06:50:17;101413.28;;;-0.23;nan
41830;BME280;38614;43.472;23.936;2022-12-29T06:53:14;101416.06;;;-0.18;nan
41830;BME280;38614;43.472;23.936;2022-12-29T06:56:01;101411.53;;;-0.08;nan
41830;BME280;38614;43.472;23.936;2022-12-29T06:58:50;101420.00;;;-0.04;nan
41830;BME280;38614;43.472;23.936;2022-12-29T07:01:39;101412.41;;;-0.02;nan
41830;BME280;38614;43.472;23.936;2022-12-29T07:05:14;101364.59;;;-0.30;nan
41830;BME280;38614;43.472;23.936;2022-12-29T07:08:18;101383.69;;;-0.20;nan
41830;BME280;38614;43.472;23.936;2022-12-29T07:11:11;101333.94;;;-0.25;nan
41830;BME280;38614;43.472;23.936;2022-12-29T07:14:11;101360.41;;;-0.11;nan
41830;BME280;38614;43.472;23.936;2022-12-29T07:17:48;101341.88;;;-0.19;nan
41830;BME280;38614;43.472;23.936;2022-12-29T07:21:10;101327.97;;;-0.27;nan
41830;BME280;38614;43.472;23.936;2022-12-29T07:24:22;101399.41;;;0.37;nan
41830;BME280;38614;43.472;23.936;2022-12-29T07:27:23;101320.19;;;-0.14;nan
41830;BME280;38614;43.472;23.936;2022-12-29T07:30:55;101344.88;;;0.17;nan
41830;BME280;38614;43.472;23.936;2022-12-29T07:34:24;101428.25;;;0.75;nan
41830;BME280;38614;43.472;23.936;2022-12-29T07:42:17;101444.16;;;0.94;nan
41830;BME280;38614;43.472;23.936;2022-12-29T07:45:34;101448.25;;;0.96;nan
41830;BME280;38614;43.472;23.936;2022-12-29T07:48:27;101440.69;;;1.08;nan
41830;BME280;38614;43.472;23.936;2022-12-29T07:51:20;101426.19;;;1.65;nan
41830;BME280;38614;43.472;23.936;2022-12-29T07:54:09;101423.84;;;2.50;nan
41830;BME280;38614;43.472;23.936;2022-12-29T07:56:56;101367.28;;;2.92;nan
41830;BME280;38614;43.472;23.936;2022-12-29T08:03:41;101344.19;;;4.07;nan
41830;BME280;38614;43.472;23.936;2022-12-29T08:06:57;101384.94;;;4.08;nan
41830;BME280;38614;43.472;23.936;2022-12-29T08:09:54;101382.88;;;2.66;nan
41830;BME280;38614;43.472;23.936;2022-12-29T08:12:45;101401.47;;;2.28;nan
41830;BME280;38614;43.472;23.936;2022-12-29T08:15:33;101397.41;;;2.05;nan
41830;BME280;38614;43.472;23.936;2022-12-29T08:18:21;101366.03;;;1.87;nan
41830;BME280;38614;43.472;23.936;2022-12-29T08:21:09;101374.22;;;1.97;nan
41830;BME280;38614;43.472;23.936;2022-12-29T08:23:57;101380.22;;;2.10;nan
41830;BME280;38614;43.472;23.936;2022-12-29T08:26:48;101388.94;;;2.07;nan
41830;BME280;38614;43.472;23.936;2022-12-29T08:29:36;101410.22;;;2.35;nan
41830;BME280;38614;43.472;23.936;2022-12-29T08:32:24;101406.41;;;2.51;nan
41830;BME280;38614;43.472;23.936;2022-12-29T08:35:15;101390.00;;;2.62;nan
41830;BME280;38614;43.472;23.936;2022-12-29T08:38:03;101406.63;;;2.75;nan
41830;BME280;38614;43.472;23.936;2022-12-29T08:41:00;101399.09;;;3.27;nan
41830;BME280;38614;43.472;23.936;2022-12-29T08:43:51;101375.75;;;3.50;nan
41830;BME280;38614;43.472;23.936;2022-12-29T08:46:39;101384.81;;;4.23;nan
41830;BME280;38614;43.472;23.936;2022-12-29T08:49:27;101319.97;;;3.90;nan
41830;BME280;38614;43.472;23.936;2022-12-29T08:52:14;101373.28;;;4.84;nan
41830;BME280;38614;43.472;23.936;2022-12-29T08:55:03;101375.84;;;5.24;nan
41830;BME280;38614;43.472;23.936;2022-12-29T08:57:51;101362.97;;;5.00;nan
41830;BME280;38614;43.472;23.936;2022-12-29T09:00:57;101357.00;;;4.69;nan
41830;BME280;38614;43.472;23.936;2022-12-29T09:03:46;101367.22;;;5.30;nan
41830;BME280;38614;43.472;23.936;2022-12-29T09:06:56;101344.59;;;5.43;nan
41830;BME280;38614;43.472;23.936;2022-12-29T09:09:47;101344.97;;;5.56;nan
41830;BME280;38614;43.472;23.936;2022-12-29T09:12:35;101275.44;;;5.65;nan
41830;BME280;38614;43.472;23.936;2022-12-29T09:15:23;101323.13;;;5.69;nan
41830;BME280;38614;43.472;23.936;2022-12-29T09:18:24;101300.53;;;6.10;nan
41830;BME280;38614;43.472;23.936;2022-12-29T09:21:21;101252.63;;;6.03;nan
41830;BME280;38614;43.472;23.936;2022-12-29T09:24:57;101266.22;;;6.40;nan
41830;BME280;38614;43.472;23.936;2022-12-29T09:27:51;101342.13;;;6.91;nan
41830;BME280;38614;43.472;23.936;2022-12-29T09:31:25;101256.16;;;6.49;nan
41830;BME280;38614;43.472;23.936;2022-12-29T09:34:59;101245.50;;;6.02;nan
41830;BME280;38614;43.472;23.936;2022-12-29T09:47:28;101309.75;;;7.52;nan
41830;BME280;38614;43.472;23.936;2022-12-29T09:50:22;101309.09;;;7.46;nan
41830;BME280;38614;43.472;23.936;2022-12-29T09:57:25;101231.81;;;6.84;nan
41830;BME280;38614;43.472;23.936;2022-12-29T10:00:37;101299.63;;;7.25;nan
41830;BME280;38614;43.472;23.936;2022-12-29T10:03:47;101291.06;;;7.40;nan
41830;BME280;38614;43.472;23.936;2022-12-29T10:13:36;101270.34;;;7.79;nan
41830;BME280;38614;43.472;23.936;2022-12-29T10:16:36;101265.53;;;7.84;nan
41830;BME280;38614;43.472;23.936;2022-12-29T10:19:49;101234.94;;;7.86;nan
41830;BME280;38614;43.472;23.936;2022-12-29T10:25:57;101266.44;;;7.80;nan
41830;BME280;38614;43.472;23.936;2022-12-29T10:31:54;101249.84;;;8.16;nan
41830;BME280;38614;43.472;23.936;2022-12-29T10:34:51;101233.81;;;7.87;nan
41830;BME280;38614;43.472;23.936;2022-12-29T10:40:56;101249.47;;;8.71;nan
41830;BME280;38614;43.472;23.936;2022-12-29T10:43:56;101249.31;;;8.76;nan
41830;BME280;38614;43.472;23.936;2022-12-29T10:47:06;101239.91;;;8.77;nan
41830;BME280;38614;43.472;23.936;2022-12-29T10:50:01;101249.72;;;8.52;nan
41830;BME280;38614;43.472;23.936;2022-12-29T10:52:51;101248.38;;;8.41;nan
41830;BME280;38614;43.472;23.936;2022-12-29T10:55:43;101215.19;;;8.54;nan
41830;BME280;38614;43.472;23.936;2022-12-29T10:58:40;101235.88;;;8.92;nan
41830;BME280;38614;43.472;23.936;2022-12-29T11:02:29;101228.09;;;8.76;nan
41830;BME280;38614;43.472;23.936;2022-12-29T11:05:25;101173.53;;;8.39;nan
41830;BME280;38614;43.472;23.936;2022-12-29T11:08:30;101214.09;;;8.64;nan
41830;BME280;38614;43.472;23.936;2022-12-29T11:11:35;101209.41;;;8.73;nan
41830;BME280;38614;43.472;23.936;2022-12-29T11:14:29;101206.34;;;8.83;nan
41830;BME280;38614;43.472;23.936;2022-12-29T11:17:22;101192.75;;;8.87;nan
41830;BME280;38614;43.472;23.936;2022-12-29T11:20:32;101179.28;;;8.77;nan
41830;BME280;38614;43.472;23.936;2022-12-29T11:23:41;101198.44;;;8.99;nan
41830;BME280;38614;43.472;23.936;2022-12-29T11:26:30;101199.94;;;9.14;nan
41830;BME280;38614;43.472;23.936;2022-12-29T11:32:19;101169.56;;;8.88;nan
41830;BME280;38614;43.472;23.936;2022-12-29T11:35:39;101182.69;;;8.91;nan
41830;BME280;38614;43.472;23.936;2022-12-29T11:38:42;101175.75;;;8.85;nan
41830;BME280;38614;43.472;23.936;2022-12-29T11:45:15;101175.81;;;8.54;nan
41830;BME280;38614;43.472;23.936;2022-12-29T11:48:18;101173.22;;;8.49;nan
41830;BME280;38614;43.472;23.936;2022-12-29T11:51:07;101173.09;;;8.71;nan
41830;BME280;38614;43.472;23.936;2022-12-29T11:54:00;101169.22;;;8.72;nan
41830;BME280;38614;43.472;23.936;2022-12-29T11:56:50;101167.88;;;8.52;nan
41830;BME280;38614;43.472;23.936;2022-12-29T11:59:54;101180.19;;;8.55;nan
41830;BME280;38614;43.472;23.936;2022-12-29T12:02:58;101146.00;;;8.47;nan
41830;BME280;38614;43.472;23.936;2022-12-29T12:08:51;101181.53;;;8.57;nan
41830;BME280;38614;43.472;23.936;2022-12-29T12:11:42;101158.97;;;8.64;nan
41830;BME280;38614;43.472;23.936;2022-12-29T12:14:39;101159.34;;;8.71;nan
41830;BME280;38614;43.472;23.936;2022-12-29T12:20:44;101164.69;;;8.68;nan
41830;BME280;38614;43.472;23.936;2022-12-29T12:30:01;101152.50;;;8.60;nan
41830;BME280;38614;43.472;23.936;2022-12-29T12:45:35;101130.88;;;8.36;nan
41830;BME280;38614;43.472;23.936;2022-12-29T12:48:41;101076.84;;;8.00;nan
41830;BME280;38614;43.472;23.936;2022-12-29T12:58:29;101143.13;;;8.70;nan
41830;BME280;38614;43.472;23.936;2022-12-29T13:01:42;101112.28;;;8.42;nan
41830;BME280;38614;43.472;23.936;2022-12-29T13:10:40;101135.47;;;8.49;nan
41830;BME280;38614;43.472;23.936;2022-12-29T13:17:08;101117.19;;;8.14;nan
41830;BME280;38614;43.472;23.936;2022-12-29T13:23:43;101141.28;;;8.08;nan
41830;BME280;38614;43.472;23.936;2022-12-29T13:29:46;101115.88;;;7.71;nan
41830;BME280;38614;43.472;23.936;2022-12-29T13:38:49;101152.34;;;7.77;nan
41830;BME280;38614;43.472;23.936;2022-12-29T13:42:05;101147.38;;;7.57;nan
41830;BME280;38614;43.472;23.936;2022-12-29T13:45:05;101148.44;;;7.47;nan
41830;BME280;38614;43.472;23.936;2022-12-29T13:48:09;101131.81;;;7.30;nan
41830;BME280;38614;43.472;23.936;2022-12-29T13:51:09;101156.31;;;7.40;nan
41830;BME280;38614;43.472;23.936;2022-12-29T14:00:19;101157.69;;;7.29;nan
41830;BME280;38614;43.472;23.936;2022-12-29T14:03:43;101148.97;;;7.27;nan
41830;BME280;38614;43.472;23.936;2022-12-29T14:06:34;101129.91;;;7.08;nan
41830;BME280;38614;43.472;23.936;2022-12-29T14:09:49;101139.19;;;6.98;nan
41830;BME280;38614;43.472;23.936;2022-12-29T14:12:42;101136.31;;;7.03;nan
41830;BME280;38614;43.472;23.936;2022-12-29T14:15:31;101130.38;;;7.10;nan
41830;BME280;38614;43.472;23.936;2022-12-29T14:18:21;101135.75;;;6.93;nan
41830;BME280;38614;43.472;23.936;2022-12-29T14:21:20;101108.75;;;6.72;nan
41830;BME280;38614;43.472;23.936;2022-12-29T14:24:42;101079.50;;;6.40;nan
41830;BME280;38614;43.472;23.936;2022-12-29T14:27:42;101130.59;;;6.77;nan
41830;BME280;38614;43.472;23.936;2022-12-29T14:30:51;101127.88;;;6.64;nan
41830;BME280;38614;43.472;23.936;2022-12-29T14:33:39;101148.25;;;6.63;nan
41830;BME280;38614;43.472;23.936;2022-12-29T14:36:37;101150.28;;;6.57;nan
41830;BME280;38614;43.472;23.936;2022-12-29T14:39:36;101137.28;;;6.35;nan
41830;BME280;38614;43.472;23.936;2022-12-29T14:42:25;101111.28;;;6.05;nan
41830;BME280;38614;43.472;23.936;2022-12-29T14:48:00;101137.28;;;5.94;nan
41830;BME280;38614;43.472;23.936;2022-12-29T14:50:48;101137.44;;;5.84;nan
41830;BME280;38614;43.472;23.936;2022-12-29T14:53:50;101131.03;;;5.61;nan
41830;BME280;38614;43.472;23.936;2022-12-29T14:56:39;101110.47;;;5.44;nan
41830;BME280;38614;43.472;23.936;2022-12-29T14:59:27;101135.88;;;5.50;nan
41830;BME280;38614;43.472;23.936;2022-12-29T15:02:19;101131.09;;;5.42;nan
41830;BME280;38614;43.472;23.936;2022-12-29T15:08:29;101140.16;;;5.24;nan
41830;BME280;38614;43.472;23.936;2022-12-29T15:14:37;101131.53;;;4.98;nan
41830;BME280;38614;43.472;23.936;2022-12-29T15:17:29;101114.00;;;4.80;nan
41830;BME280;38614;43.472;23.936;2022-12-29T15:20:26;101131.31;;;4.75;nan
41830;BME280;38614;43.472;23.936;2022-12-29T15:23:14;101125.16;;;4.65;nan
41830;BME280;38614;43.472;23.936;2022-12-29T15:26:06;101126.72;;;4.52;nan
41830;BME280;38614;43.472;23.936;2022-12-29T15:28:54;101128.69;;;4.46;nan
41830;BME280;38614;43.472;23.936;2022-12-29T15:31:48;101120.84;;;4.40;nan
41830;BME280;38614;43.472;23.936;2022-12-29T15:34:36;101138.59;;;4.42;nan
41830;BME280;38614;43.472;23.936;2022-12-29T15:37:33;101138.66;;;4.37;nan
41830;BME280;38614;43.472;23.936;2022-12-29T15:40:29;101147.47;;;4.34;nan
41830;BME280;38614;43.472;23.936;2022-12-29T15:46:30;101132.22;;;4.28;nan
41830;BME280;38614;43.472;23.936;2022-12-29T15:49:19;101134.22;;;4.22;nan
41830;BME280;38614;43.472;23.936;2022-12-29T15:52:10;101133.09;;;4.23;nan
41830;BME280;38614;43.472;23.936;2022-12-29T15:54:59;101133.41;;;4.22;nan
41830;BME280;38614;43.472;23.936;2022-12-29T15:57:55;101133.75;;;4.15;nan
41830;BME280;38614;43.472;23.936;2022-12-29T16:01:02;101138.75;;;4.08;nan
41830;BME280;38614;43.472;23.936;2022-12-29T16:03:51;101126.28;;;3.97;nan
41830;BME280;38614;43.472;23.936;2022-12-29T16:06:54;101130.34;;;3.99;nan
41830;BME280;38614;43.472;23.936;2022-12-29T16:09:54;101063.59;;;3.58;nan
41830;BME280;38614;43.472;23.936;2022-12-29T16:12:43;101137.81;;;3.94;nan
41830;BME280;38614;43.472;23.936;2022-12-29T16:15:32;101124.19;;;3.89;nan
41830;BME280;38614;43.472;23.936;2022-12-29T16:18:26;101133.50;;;3.88;nan
41830;BME280;38614;43.472;23.936;2022-12-29T16:21:20;101136.56;;;3.81;nan
41830;BME280;38614;43.472;23.936;2022-12-29T16:24:19;101063.72;;;3.42;nan
41830;BME280;38614;43.472;23.936;2022-12-29T16:27:25;101133.28;;;3.84;nan
41830;BME280;38614;43.472;23.936;2022-12-29T16:30:25;101126.03;;;3.69;nan
41830;BME280;38614;43.472;23.936;2022-12-29T16:33:43;101127.22;;;3.63;nan
41830;BME280;38614;43.472;23.936;2022-12-29T16:36:34;101127.75;;;3.65;nan
41830;BME280;38614;43.472;23.936;2022-12-29T16:39:37;101125.63;;;3.57;nan
41830;BME280;38614;43.472;23.936;2022-12-29T16:42:35;101119.69;;;3.50;nan
41830;BME280;38614;43.472;23.936;2022-12-29T16:48:46;101123.19;;;3.56;nan
41830;BME280;38614;43.472;23.936;2022-12-29T16:51:36;101102.78;;;3.43;nan
41830;BME280;38614;43.472;23.936;2022-12-29T16:54:37;101072.94;;;3.23;nan
41830;BME280;38614;43.472;23.936;2022-12-29T16:57:38;101114.53;;;3.43;nan
41830;BME280;38614;43.472;23.936;2022-12-29T17:00:30;101089.00;;;3.29;nan
41830;BME280;38614;43.472;23.936;2022-12-29T17:03:40;101092.97;;;3.42;nan
41830;BME280;38614;43.472;23.936;2022-12-29T17:06:35;101104.25;;;3.35;nan
41830;BME280;38614;43.472;23.936;2022-12-29T17:09:31;101111.38;;;3.31;nan
41830;BME280;38614;43.472;23.936;2022-12-29T17:12:24;101052.66;;;2.71;nan
41830;BME280;38614;43.472;23.936;2022-12-29T17:15:27;101092.53;;;3.01;nan
41830;BME280;38614;43.472;23.936;2022-12-29T17:18:27;101106.03;;;3.16;nan
41830;BME280;38614;43.472;23.936;2022-12-29T17:21:19;101107.41;;;3.19;nan
41830;BME280;38614;43.472;23.936;2022-12-29T17:24:33;101100.13;;;3.09;nan
41830;BME280;38614;43.472;23.936;2022-12-29T17:34:36;101095.09;;;2.87;nan
41830;BME280;38614;43.472;23.936;2022-12-29T17:37:32;101122.34;;;2.92;nan
41830;BME280;38614;43.472;23.936;2022-12-29T17:40:24;101110.63;;;2.92;nan
41830;BME280;38614;43.472;23.936;2022-12-29T17:43:21;101084.31;;;2.67;nan
41830;BME280;38614;43.472;23.936;2022-12-29T17:46:13;101104.75;;;2.69;nan
41830;BME280;38614;43.472;23.936;2022-12-29T17:49:05;101107.25;;;2.66;nan
41830;BME280;38614;43.472;23.936;2022-12-29T17:51:57;101101.56;;;2.57;nan
41830;BME280;38614;43.472;23.936;2022-12-29T17:54:57;101063.03;;;2.24;nan
41830;BME280;38614;43.472;23.936;2022-12-29T17:57:45;101100.81;;;2.46;nan
41830;BME280;38614;43.472;23.936;2022-12-29T18:00:36;101078.88;;;2.17;nan
41830;BME280;38614;43.472;23.936;2022-12-29T18:03:30;101119.44;;;2.34;nan
41830;BME280;38614;43.472;23.936;2022-12-29T18:06:24;101107.97;;;2.32;nan
41830;BME280;38614;43.472;23.936;2022-12-29T18:09:23;101096.34;;;2.16;nan
41830;BME280;38614;43.472;23.936;2022-12-29T18:15:31;101090.31;;;2.24;nan
41830;BME280;38614;43.472;23.936;2022-12-29T18:18:26;101086.78;;;2.19;nan
41830;BME280;38614;43.472;23.936;2022-12-29T18:21:23;101114.63;;;2.11;nan
41830;BME280;38614;43.472;23.936;2022-12-29T18:24:14;101105.91;;;2.04;nan
41830;BME280;38614;43.472;23.936;2022-12-29T18:27:11;101102.94;;;2.00;nan
41830;BME280;38614;43.472;23.936;2022-12-29T18:30:00;101070.56;;;1.83;nan
41830;BME280;38614;43.472;23.936;2022-12-29T18:32:47;101100.25;;;1.90;nan
41830;BME280;38614;43.472;23.936;2022-12-29T18:35:41;101062.25;;;1.49;nan